sensor_id;sensor_type;location;lat;lon;timestamp;temperature;humidity
69715;HTU21D;56981;53.532;49.398;2023-08-20T00:02:18;20.06;59.41
69715;HTU21D;56981;53.532;49.398;2023-08-20T00:04:46;20.09;59.26
69715;HTU21D;56981;53.532;49.398;2023-08-20T00:07:14;20.06;59.39
69715;HTU21D;56981;53.532;49.398;2023-08-20T00:09:44;20.07;59.32
69715;HTU21D;56981;53.532;49.398;2023-08-20T00:12:10;20.04;59.47
69715;HTU21D;56981;53.532;49.398;2023-08-20T00:14:52;19.97;59.49
69715;HTU21D;56981;53.532;49.398;2023-08-20T00:17:20;19.88;59.96
69715;HTU21D;56981;53.532;49.398;2023-08-20T00:19:48;19.82;60.01
69715;HTU21D;56981;53.532;49.398;2023-08-20T00:22:15;19.72;60.11
69715;HTU21D;56981;53.532;49.398;2023-08-20T00:24:42;19.66;60.38
69715;HTU21D;56981;53.532;49.398;2023-08-20T00:27:08;19.60;60.44
69715;HTU21D;56981;53.532;49.398;2023-08-20T00:29:34;19.57;60.81
69715;HTU21D;56981;53.532;49.398;2023-08-20T00:32:00;19.53;60.86
69715;HTU21D;56981;53.532;49.398;2023-08-20T00:34:26;19.44;60.94
69715;HTU21D;56981;53.532;49.398;2023-08-20T00:36:52;19.41;61.02
69715;HTU21D;56981;53.532;49.398;2023-08-20T00:39:18;19.35;61.38
69715;HTU21D;56981;53.532;49.398;2023-08-20T00:41:44;19.25;61.75
69715;HTU21D;56981;53.532;49.398;2023-08-20T00:44:11;19.25;61.92
69715;HTU21D;56981;53.532;49.398;2023-08-20T00:46:37;19.22;62.02
69715;HTU21D;56981;53.532;49.398;2023-08-20T00:49:04;19.21;61.83
69715;HTU21D;56981;53.532;49.398;2023-08-20T00:51:32;19.17;61.90
69715;HTU21D;56981;53.532;49.398;2023-08-20T00:54:00;19.13;62.12
69715;HTU21D;56981;53.532;49.398;2023-08-20T00:56:26;19.10;62.14
69715;HTU21D;56981;53.532;49.398;2023-08-20T00:58:53;19.07;62.18
69715;HTU21D;56981;53.532;49.398;2023-08-20T01:01:21;19.03;62.23
69715;HTU21D;56981;53.532;49.398;2023-08-20T01:03:48;19.03;62.48
69715;HTU21D;56981;53.532;49.398;2023-08-20T01:08:47;19.01;62.35
69715;HTU21D;56981;53.532;49.398;2023-08-20T01:11:21;18.99;62.49
69715;HTU21D;56981;53.532;49.398;2023-08-20T01:13:49;18.86;62.85
69715;HTU21D;56981;53.532;49.398;2023-08-20T01:16:15;18.86;63.34
69715;HTU21D;56981;53.532;49.398;2023-08-20T01:18:41;18.85;62.57
69715;HTU21D;56981;53.532;49.398;2023-08-20T01:21:37;18.85;62.73
69715;HTU21D;56981;53.532;49.398;2023-08-20T01:27:10;18.84;62.93
69715;HTU21D;56981;53.532;49.398;2023-08-20T01:29:43;18.83;62.91
69715;HTU21D;56981;53.532;49.398;2023-08-20T01:32:10;18.82;62.75
69715;HTU21D;56981;53.532;49.398;2023-08-20T01:34:37;18.82;62.73
69715;HTU21D;56981;53.532;49.398;2023-08-20T01:37:04;18.81;62.96
69715;HTU21D;56981;53.532;49.398;2023-08-20T01:39:30;18.77;63.05
69715;HTU21D;56981;53.532;49.398;2023-08-20T01:41:56;18.76;63.04
69715;HTU21D;56981;53.532;49.398;2023-08-20T01:44:23;18.83;62.74
69715;HTU21D;56981;53.532;49.398;2023-08-20T01:46:49;18.91;62.77
69715;HTU21D;56981;53.532;49.398;2023-08-20T01:49:15;18.98;62.14
69715;HTU21D;56981;53.532;49.398;2023-08-20T01:51:41;19.33;61.76
69715;HTU21D;56981;53.532;49.398;2023-08-20T01:54:07;19.57;60.40
69715;HTU21D;56981;53.532;49.398;2023-08-20T01:56:34;19.75;59.61
69715;HTU21D;56981;53.532;49.398;2023-08-20T01:59:00;20.02;58.71
69715;HTU21D;56981;53.532;49.398;2023-08-20T02:01:26;20.02;58.96
69715;HTU21D;56981;53.532;49.398;2023-08-20T02:03:52;20.16;59.02
69715;HTU21D;56981;53.532;49.398;2023-08-20T02:06:19;20.16;58.13
69715;HTU21D;56981;53.532;49.398;2023-08-20T02:08:45;20.14;58.21
69715;HTU21D;56981;53.532;49.398;2023-08-20T02:11:11;20.31;58.09
69715;HTU21D;56981;53.532;49.398;2023-08-20T02:13:38;20.48;56.95
69715;HTU21D;56981;53.532;49.398;2023-08-20T02:16:04;20.74;56.25
69715;HTU21D;56981;53.532;49.398;2023-08-20T02:18:32;20.84;55.58
69715;HTU21D;56981;53.532;49.398;2023-08-20T02:20:58;21.06;55.16
69715;HTU21D;56981;53.532;49.398;2023-08-20T02:23:25;21.46;54.01
69715;HTU21D;56981;53.532;49.398;2023-08-20T02:25:51;21.68;53.04
69715;HTU21D;56981;53.532;49.398;2023-08-20T02:28:17;21.99;52.35
69715;HTU21D;56981;53.532;49.398;2023-08-20T02:30:45;22.71;50.59
69715;HTU21D;56981;53.532;49.398;2023-08-20T02:33:12;23.24;49.17
69715;HTU21D;56981;53.532;49.398;2023-08-20T02:35:38;23.64;47.88
69715;HTU21D;56981;53.532;49.398;2023-08-20T02:38:05;24.15;46.21
69715;HTU21D;56981;53.532;49.398;2023-08-20T02:40:32;24.60;44.87
69715;HTU21D;56981;53.532;49.398;2023-08-20T02:42:58;24.91;44.00
69715;HTU21D;56981;53.532;49.398;2023-08-20T02:45:24;25.07;43.72
69715;HTU21D;56981;53.532;49.398;2023-08-20T02:47:51;25.04;43.48
69715;HTU21D;56981;53.532;49.398;2023-08-20T02:50:17;25.17;43.93
69715;HTU21D;56981;53.532;49.398;2023-08-20T02:52:45;25.22;43.01
69715;HTU21D;56981;53.532;49.398;2023-08-20T02:55:11;24.61;44.25
69715;HTU21D;56981;53.532;49.398;2023-08-20T02:57:37;23.83;46.63
69715;HTU21D;56981;53.532;49.398;2023-08-20T03:00:04;23.25;48.60
69715;HTU21D;56981;53.532;49.398;2023-08-20T03:02:30;22.48;50.66
69715;HTU21D;56981;53.532;49.398;2023-08-20T03:04:56;22.36;51.06
69715;HTU21D;56981;53.532;49.398;2023-08-20T03:07:23;22.34;51.44
69715;HTU21D;56981;53.532;49.398;2023-08-20T03:09:49;23.14;49.40
69715;HTU21D;56981;53.532;49.398;2023-08-20T03:12:15;24.35;46.14
69715;HTU21D;56981;53.532;49.398;2023-08-20T03:14:41;25.46;43.40
69715;HTU21D;56981;53.532;49.398;2023-08-20T03:17:07;25.97;41.52
69715;HTU21D;56981;53.532;49.398;2023-08-20T03:19:34;26.53;40.88
69715;HTU21D;56981;53.532;49.398;2023-08-20T03:22:02;27.40;38.91
69715;HTU21D;56981;53.532;49.398;2023-08-20T03:24:28;27.84;37.28
69715;HTU21D;56981;53.532;49.398;2023-08-20T03:26:54;28.43;36.12
69715;HTU21D;56981;53.532;49.398;2023-08-20T03:29:20;28.74;35.88
69715;HTU21D;56981;53.532;49.398;2023-08-20T03:31:46;29.02;35.11
69715;HTU21D;56981;53.532;49.398;2023-08-20T03:34:12;29.21;35.30
69715;HTU21D;56981;53.532;49.398;2023-08-20T03:36:38;29.27;35.19
69715;HTU21D;56981;53.532;49.398;2023-08-20T03:39:04;29.75;33.70
69715;HTU21D;56981;53.532;49.398;2023-08-20T03:41:30;30.15;33.04
69715;HTU21D;56981;53.532;49.398;2023-08-20T03:43:56;30.31;32.95
69715;HTU21D;56981;53.532;49.398;2023-08-20T03:46:22;30.15;32.83
69715;HTU21D;56981;53.532;49.398;2023-08-20T03:48:48;30.22;33.22
69715;HTU21D;56981;53.532;49.398;2023-08-20T03:51:14;30.64;32.33
69715;HTU21D;56981;53.532;49.398;2023-08-20T03:53:40;31.51;30.57
69715;HTU21D;56981;53.532;49.398;2023-08-20T03:56:06;32.00;29.84
69715;HTU21D;56981;53.532;49.398;2023-08-20T03:58:32;32.34;29.23
69715;HTU21D;56981;53.532;49.398;2023-08-20T04:00:58;32.39;29.19
69715;HTU21D;56981;53.532;49.398;2023-08-20T04:03:24;32.70;28.38
69715;HTU21D;56981;53.532;49.398;2023-08-20T04:05:50;32.47;29.27
69715;HTU21D;56981;53.532;49.398;2023-08-20T04:08:17;32.39;29.41
69715;HTU21D;56981;53.532;49.398;2023-08-20T04:10:43;32.32;29.17
69715;HTU21D;56981;53.532;49.398;2023-08-20T04:13:17;32.32;29.51
69715;HTU21D;56981;53.532;49.398;2023-08-20T04:15:43;32.83;28.55
69715;HTU21D;56981;53.532;49.398;2023-08-20T04:18:09;33.73;27.09
69715;HTU21D;56981;53.532;49.398;2023-08-20T04:20:35;33.57;27.07
69715;HTU21D;56981;53.532;49.398;2023-08-20T04:23:01;32.93;28.95
69715;HTU21D;56981;53.532;49.398;2023-08-20T04:25:27;32.62;29.19
69715;HTU21D;56981;53.532;49.398;2023-08-20T04:27:53;32.55;29.66
69715;HTU21D;56981;53.532;49.398;2023-08-20T04:30:19;33.03;28.31
69715;HTU21D;56981;53.532;49.398;2023-08-20T04:32:46;33.22;28.50
69715;HTU21D;56981;53.532;49.398;2023-08-20T04:35:12;33.17;28.19
69715;HTU21D;56981;53.532;49.398;2023-08-20T04:37:38;33.16;27.97
69715;HTU21D;56981;53.532;49.398;2023-08-20T04:40:04;33.38;27.75
69715;HTU21D;56981;53.532;49.398;2023-08-20T04:42:31;33.55;28.47
69715;HTU21D;56981;53.532;49.398;2023-08-20T04:44:57;33.25;28.30
69715;HTU21D;56981;53.532;49.398;2023-08-20T04:47:23;32.85;28.55
69715;HTU21D;56981;53.532;49.398;2023-08-20T04:49:49;32.75;28.92
69715;HTU21D;56981;53.532;49.398;2023-08-20T04:52:15;32.75;28.77
69715;HTU21D;56981;53.532;49.398;2023-08-20T04:54:41;33.36;28.58
69715;HTU21D;56981;53.532;49.398;2023-08-20T04:57:07;33.18;29.05
69715;HTU21D;56981;53.532;49.398;2023-08-20T04:59:33;32.77;28.71
69715;HTU21D;56981;53.532;49.398;2023-08-20T05:01:59;33.21;28.21
69715;HTU21D;56981;53.532;49.398;2023-08-20T05:04:26;33.55;27.72
69715;HTU21D;56981;53.532;49.398;2023-08-20T05:06:52;33.44;27.33
69715;HTU21D;56981;53.532;49.398;2023-08-20T05:09:18;34.29;25.39
69715;HTU21D;56981;53.532;49.398;2023-08-20T05:11:44;34.78;24.54
69715;HTU21D;56981;53.532;49.398;2023-08-20T05:14:10;34.48;24.76
69715;HTU21D;56981;53.532;49.398;2023-08-20T05:16:36;34.18;25.72
69715;HTU21D;56981;53.532;49.398;2023-08-20T05:19:02;34.22;25.72
69715;HTU21D;56981;53.532;49.398;2023-08-20T05:21:28;34.21;25.39
69715;HTU21D;56981;53.532;49.398;2023-08-20T05:23:54;34.19;25.21
69715;HTU21D;56981;53.532;49.398;2023-08-20T05:26:21;34.34;24.95
69715;HTU21D;56981;53.532;49.398;2023-08-20T05:28:47;34.25;25.31
69715;HTU21D;56981;53.532;49.398;2023-08-20T05:31:13;34.40;24.68
69715;HTU21D;56981;53.532;49.398;2023-08-20T05:33:39;34.00;25.26
69715;HTU21D;56981;53.532;49.398;2023-08-20T05:36:05;33.96;25.11
69715;HTU21D;56981;53.532;49.398;2023-08-20T05:38:31;33.46;25.60
69715;HTU21D;56981;53.532;49.398;2023-08-20T05:40:57;33.74;25.38
69715;HTU21D;56981;53.532;49.398;2023-08-20T05:43:23;34.36;24.62
69715;HTU21D;56981;53.532;49.398;2023-08-20T05:45:49;34.94;24.00
69715;HTU21D;56981;53.532;49.398;2023-08-20T05:48:15;34.71;24.00
69715;HTU21D;56981;53.532;49.398;2023-08-20T05:50:41;34.20;24.07
69715;HTU21D;56981;53.532;49.398;2023-08-20T05:53:07;34.17;24.24
69715;HTU21D;56981;53.532;49.398;2023-08-20T05:55:33;34.19;24.08
69715;HTU21D;56981;53.532;49.398;2023-08-20T05:57:59;34.11;23.91
69715;HTU21D;56981;53.532;49.398;2023-08-20T06:00:26;34.45;24.39
69715;HTU21D;56981;53.532;49.398;2023-08-20T06:02:52;34.48;23.96
69715;HTU21D;56981;53.532;49.398;2023-08-20T06:05:18;34.08;24.12
69715;HTU21D;56981;53.532;49.398;2023-08-20T06:07:44;34.51;24.15
69715;HTU21D;56981;53.532;49.398;2023-08-20T06:10:11;34.03;24.46
69715;HTU21D;56981;53.532;49.398;2023-08-20T06:12:37;34.57;23.50
69715;HTU21D;56981;53.532;49.398;2023-08-20T06:15:04;34.75;24.01
69715;HTU21D;56981;53.532;49.398;2023-08-20T06:17:30;34.38;23.95
69715;HTU21D;56981;53.532;49.398;2023-08-20T06:19:57;35.10;22.97
69715;HTU21D;56981;53.532;49.398;2023-08-20T06:22:23;34.74;24.14
69715;HTU21D;56981;53.532;49.398;2023-08-20T06:24:49;34.78;23.23
69715;HTU21D;56981;53.532;49.398;2023-08-20T06:27:15;35.01;23.98
69715;HTU21D;56981;53.532;49.398;2023-08-20T06:29:41;34.97;22.80
69715;HTU21D;56981;53.532;49.398;2023-08-20T06:32:07;34.60;23.38
69715;HTU21D;56981;53.532;49.398;2023-08-20T06:34:34;34.57;23.53
69715;HTU21D;56981;53.532;49.398;2023-08-20T06:37:01;34.82;23.01
69715;HTU21D;56981;53.532;49.398;2023-08-20T06:39:27;34.80;23.54
69715;HTU21D;56981;53.532;49.398;2023-08-20T06:41:56;35.14;23.07
69715;HTU21D;56981;53.532;49.398;2023-08-20T06:44:23;35.09;23.92
69715;HTU21D;56981;53.532;49.398;2023-08-20T06:46:49;34.59;23.56
69715;HTU21D;56981;53.532;49.398;2023-08-20T06:49:15;34.35;24.33
69715;HTU21D;56981;53.532;49.398;2023-08-20T06:51:41;34.24;23.12
69715;HTU21D;56981;53.532;49.398;2023-08-20T06:54:07;35.04;23.87
69715;HTU21D;56981;53.532;49.398;2023-08-20T06:56:33;34.66;22.97
69715;HTU21D;56981;53.532;49.398;2023-08-20T06:59:00;34.54;23.18
69715;HTU21D;56981;53.532;49.398;2023-08-20T07:01:29;34.98;22.22
69715;HTU21D;56981;53.532;49.398;2023-08-20T07:03:55;34.84;22.41
69715;HTU21D;56981;53.532;49.398;2023-08-20T07:06:21;34.40;23.16
69715;HTU21D;56981;53.532;49.398;2023-08-20T07:08:48;34.19;23.56
69715;HTU21D;56981;53.532;49.398;2023-08-20T07:11:14;34.02;24.04
69715;HTU21D;56981;53.532;49.398;2023-08-20T07:13:40;34.41;23.35
69715;HTU21D;56981;53.532;49.398;2023-08-20T07:16:06;33.90;23.92
69715;HTU21D;56981;53.532;49.398;2023-08-20T07:18:32;33.48;24.65
69715;HTU21D;56981;53.532;49.398;2023-08-20T07:20:59;33.01;25.59
69715;HTU21D;56981;53.532;49.398;2023-08-20T07:23:25;33.09;26.88
69715;HTU21D;56981;53.532;49.398;2023-08-20T07:25:52;33.08;26.07
69715;HTU21D;56981;53.532;49.398;2023-08-20T07:28:29;32.97;25.93
69715;HTU21D;56981;53.532;49.398;2023-08-20T07:31:15;33.02;25.72
69715;HTU21D;56981;53.532;49.398;2023-08-20T07:33:46;33.07;27.00
69715;HTU21D;56981;53.532;49.398;2023-08-20T07:36:14;32.88;25.09
69715;HTU21D;56981;53.532;49.398;2023-08-20T07:38:40;32.61;26.58
69715;HTU21D;56981;53.532;49.398;2023-08-20T07:41:11;32.28;26.79
69715;HTU21D;56981;53.532;49.398;2023-08-20T07:43:38;32.48;27.10
69715;HTU21D;56981;53.532;49.398;2023-08-20T07:46:06;32.71;26.12
69715;HTU21D;56981;53.532;49.398;2023-08-20T07:48:34;32.83;26.01
69715;HTU21D;56981;53.532;49.398;2023-08-20T07:51:04;32.82;26.30
69715;HTU21D;56981;53.532;49.398;2023-08-20T07:53:31;32.53;26.06
69715;HTU21D;56981;53.532;49.398;2023-08-20T07:55:57;32.62;26.50
69715;HTU21D;56981;53.532;49.398;2023-08-20T07:58:24;32.83;25.65
69715;HTU21D;56981;53.532;49.398;2023-08-20T08:00:50;32.78;26.01
69715;HTU21D;56981;53.532;49.398;2023-08-20T08:03:17;32.66;26.73
69715;HTU21D;56981;53.532;49.398;2023-08-20T08:05:47;32.53;26.84
69715;HTU21D;56981;53.532;49.398;2023-08-20T08:08:15;32.78;25.89
69715;HTU21D;56981;53.532;49.398;2023-08-20T08:10:44;32.78;26.13
69715;HTU21D;56981;53.532;49.398;2023-08-20T08:13:20;32.23;27.81
69715;HTU21D;56981;53.532;49.398;2023-08-20T08:15:48;32.05;27.77
69715;HTU21D;56981;53.532;49.398;2023-08-20T08:18:15;32.18;28.12
69715;HTU21D;56981;53.532;49.398;2023-08-20T08:20:41;32.27;28.33
69715;HTU21D;56981;53.532;49.398;2023-08-20T08:23:07;32.05;28.74
69715;HTU21D;56981;53.532;49.398;2023-08-20T08:25:34;31.87;29.72
69715;HTU21D;56981;53.532;49.398;2023-08-20T08:28:00;31.90;28.82
69715;HTU21D;56981;53.532;49.398;2023-08-20T08:30:26;32.02;28.67
69715;HTU21D;56981;53.532;49.398;2023-08-20T08:32:52;32.03;28.92
69715;HTU21D;56981;53.532;49.398;2023-08-20T08:35:20;31.99;28.25
69715;HTU21D;56981;53.532;49.398;2023-08-20T08:37:46;31.82;28.16
69715;HTU21D;56981;53.532;49.398;2023-08-20T08:40:12;32.01;28.28
69715;HTU21D;56981;53.532;49.398;2023-08-20T08:42:40;31.64;29.21
69715;HTU21D;56981;53.532;49.398;2023-08-20T08:45:06;31.65;29.24
69715;HTU21D;56981;53.532;49.398;2023-08-20T08:47:33;31.73;29.54
69715;HTU21D;56981;53.532;49.398;2023-08-20T08:49:59;31.82;29.93
69715;HTU21D;56981;53.532;49.398;2023-08-20T08:52:26;31.71;29.55
69715;HTU21D;56981;53.532;49.398;2023-08-20T08:54:52;31.50;30.35
69715;HTU21D;56981;53.532;49.398;2023-08-20T08:57:19;31.33;29.77
69715;HTU21D;56981;53.532;49.398;2023-08-20T08:59:45;31.36;29.28
69715;HTU21D;56981;53.532;49.398;2023-08-20T09:02:12;31.15;29.43
69715;HTU21D;56981;53.532;49.398;2023-08-20T09:04:39;30.83;30.32
69715;HTU21D;56981;53.532;49.398;2023-08-20T09:07:13;30.84;30.80
69715;HTU21D;56981;53.532;49.398;2023-08-20T09:09:44;30.89;31.38
69715;HTU21D;56981;53.532;49.398;2023-08-20T09:12:15;30.77;31.46
69715;HTU21D;56981;53.532;49.398;2023-08-20T09:14:50;30.49;32.11
69715;HTU21D;56981;53.532;49.398;2023-08-20T09:17:17;30.18;31.91
69715;HTU21D;56981;53.532;49.398;2023-08-20T09:19:44;30.16;32.68
69715;HTU21D;56981;53.532;49.398;2023-08-20T09:22:14;30.16;33.18
69715;HTU21D;56981;53.532;49.398;2023-08-20T09:24:47;30.20;33.41
69715;HTU21D;56981;53.532;49.398;2023-08-20T09:27:13;29.98;32.42
69715;HTU21D;56981;53.532;49.398;2023-08-20T09:29:46;29.81;32.34
69715;HTU21D;56981;53.532;49.398;2023-08-20T09:32:23;29.83;32.96
69715;HTU21D;56981;53.532;49.398;2023-08-20T09:34:50;30.09;32.91
69715;HTU21D;56981;53.532;49.398;2023-08-20T09:37:18;30.05;32.39
69715;HTU21D;56981;53.532;49.398;2023-08-20T09:39:45;29.92;32.46
69715;HTU21D;56981;53.532;49.398;2023-08-20T09:42:12;29.85;32.59
69715;HTU21D;56981;53.532;49.398;2023-08-20T09:44:40;29.73;33.47
69715;HTU21D;56981;53.532;49.398;2023-08-20T09:47:11;29.49;33.76
69715;HTU21D;56981;53.532;49.398;2023-08-20T09:49:42;29.21;33.88
69715;HTU21D;56981;53.532;49.398;2023-08-20T09:52:10;29.06;34.23
69715;HTU21D;56981;53.532;49.398;2023-08-20T09:57:14;28.74;35.04
69715;HTU21D;56981;53.532;49.398;2023-08-20T09:59:45;28.64;35.75
69715;HTU21D;56981;53.532;49.398;2023-08-20T10:02:13;28.75;35.15
69715;HTU21D;56981;53.532;49.398;2023-08-20T10:04:41;28.73;35.89
69715;HTU21D;56981;53.532;49.398;2023-08-20T10:07:09;28.75;35.44
69715;HTU21D;56981;53.532;49.398;2023-08-20T10:09:37;28.84;35.11
69715;HTU21D;56981;53.532;49.398;2023-08-20T10:12:04;28.83;35.60
69715;HTU21D;56981;53.532;49.398;2023-08-20T10:14:31;28.65;36.11
69715;HTU21D;56981;53.532;49.398;2023-08-20T10:16:57;28.71;36.92
69715;HTU21D;56981;53.532;49.398;2023-08-20T10:19:24;28.74;35.98
69715;HTU21D;56981;53.532;49.398;2023-08-20T10:21:52;28.59;36.01
69715;HTU21D;56981;53.532;49.398;2023-08-20T10:24:19;28.60;36.59
69715;HTU21D;56981;53.532;49.398;2023-08-20T10:26:46;28.75;37.27
69715;HTU21D;56981;53.532;49.398;2023-08-20T10:29:38;28.79;35.87
69715;HTU21D;56981;53.532;49.398;2023-08-20T10:32:12;28.62;35.43
69715;HTU21D;56981;53.532;49.398;2023-08-20T10:34:39;28.20;37.43
69715;HTU21D;56981;53.532;49.398;2023-08-20T10:37:12;28.04;37.63
69715;HTU21D;56981;53.532;49.398;2023-08-20T10:39:38;28.06;37.69
69715;HTU21D;56981;53.532;49.398;2023-08-20T10:45:00;28.13;37.79
69715;HTU21D;56981;53.532;49.398;2023-08-20T10:47:43;28.23;37.46
69715;HTU21D;56981;53.532;49.398;2023-08-20T10:50:12;28.26;37.33
69715;HTU21D;56981;53.532;49.398;2023-08-20T10:52:42;28.23;37.30
69715;HTU21D;56981;53.532;49.398;2023-08-20T10:55:13;28.16;37.32
69715;HTU21D;56981;53.532;49.398;2023-08-20T10:57:40;28.21;38.03
69715;HTU21D;56981;53.532;49.398;2023-08-20T11:00:08;27.94;37.77
69715;HTU21D;56981;53.532;49.398;2023-08-20T11:02:41;28.03;37.57
69715;HTU21D;56981;53.532;49.398;2023-08-20T11:05:20;28.17;37.64
69715;HTU21D;56981;53.532;49.398;2023-08-20T11:07:50;28.21;37.22
69715;HTU21D;56981;53.532;49.398;2023-08-20T11:10:17;28.17;36.88
69715;HTU21D;56981;53.532;49.398;2023-08-20T11:12:45;28.21;37.38
69715;HTU21D;56981;53.532;49.398;2023-08-20T11:15:11;28.32;37.13
69715;HTU21D;56981;53.532;49.398;2023-08-20T11:17:45;28.39;37.16
69715;HTU21D;56981;53.532;49.398;2023-08-20T11:20:13;28.47;37.15
69715;HTU21D;56981;53.532;49.398;2023-08-20T11:22:39;28.54;36.76
69715;HTU21D;56981;53.532;49.398;2023-08-20T11:25:10;28.54;36.98
69715;HTU21D;56981;53.532;49.398;2023-08-20T11:27:41;28.64;36.69
69715;HTU21D;56981;53.532;49.398;2023-08-20T11:30:08;28.67;36.82
69715;HTU21D;56981;53.532;49.398;2023-08-20T11:32:35;28.48;36.97
69715;HTU21D;56981;53.532;49.398;2023-08-20T11:35:01;28.52;37.17
69715;HTU21D;56981;53.532;49.398;2023-08-20T11:37:28;28.52;36.50
69715;HTU21D;56981;53.532;49.398;2023-08-20T11:39:54;28.40;37.21
69715;HTU21D;56981;53.532;49.398;2023-08-20T11:42:20;28.17;37.22
69715;HTU21D;56981;53.532;49.398;2023-08-20T11:44:47;27.88;38.17
69715;HTU21D;56981;53.532;49.398;2023-08-20T11:47:15;27.82;37.98
69715;HTU21D;56981;53.532;49.398;2023-08-20T11:49:41;27.72;38.24
69715;HTU21D;56981;53.532;49.398;2023-08-20T11:52:07;27.67;38.18
69715;HTU21D;56981;53.532;49.398;2023-08-20T11:54:33;27.70;38.90
69715;HTU21D;56981;53.532;49.398;2023-08-20T11:57:03;27.68;38.80
69715;HTU21D;56981;53.532;49.398;2023-08-20T11:59:30;27.74;38.88
69715;HTU21D;56981;53.532;49.398;2023-08-20T12:02:00;27.79;38.81
69715;HTU21D;56981;53.532;49.398;2023-08-20T12:04:28;27.69;38.32
69715;HTU21D;56981;53.532;49.398;2023-08-20T12:07:08;27.59;39.24
69715;HTU21D;56981;53.532;49.398;2023-08-20T12:09:35;27.56;39.17
69715;HTU21D;56981;53.532;49.398;2023-08-20T12:12:02;27.59;38.82
69715;HTU21D;56981;53.532;49.398;2023-08-20T12:14:28;27.57;39.08
69715;HTU21D;56981;53.532;49.398;2023-08-20T12:16:55;27.54;39.34
69715;HTU21D;56981;53.532;49.398;2023-08-20T12:19:21;27.42;38.94
69715;HTU21D;56981;53.532;49.398;2023-08-20T12:21:48;27.40;39.02
69715;HTU21D;56981;53.532;49.398;2023-08-20T12:24:15;27.36;39.17
69715;HTU21D;56981;53.532;49.398;2023-08-20T12:26:42;27.41;39.30
69715;HTU21D;56981;53.532;49.398;2023-08-20T12:29:08;27.35;39.21
69715;HTU21D;56981;53.532;49.398;2023-08-20T12:31:35;27.31;38.94
69715;HTU21D;56981;53.532;49.398;2023-08-20T12:34:01;27.24;39.34
69715;HTU21D;56981;53.532;49.398;2023-08-20T12:36:28;27.28;39.14
69715;HTU21D;56981;53.532;49.398;2023-08-20T12:38:55;27.28;39.46
69715;HTU21D;56981;53.532;49.398;2023-08-20T12:41:21;27.26;39.66
69715;HTU21D;56981;53.532;49.398;2023-08-20T12:43:47;27.13;39.33
69715;HTU21D;56981;53.532;49.398;2023-08-20T12:46:13;27.06;39.68
69715;HTU21D;56981;53.532;49.398;2023-08-20T12:48:40;27.09;39.75
69715;HTU21D;56981;53.532;49.398;2023-08-20T12:51:07;27.12;39.70
69715;HTU21D;56981;53.532;49.398;2023-08-20T12:53:34;27.14;40.07
69715;HTU21D;56981;53.532;49.398;2023-08-20T12:56:00;27.08;39.60
69715;HTU21D;56981;53.532;49.398;2023-08-20T12:58:28;27.10;39.38
69715;HTU21D;56981;53.532;49.398;2023-08-20T13:00:54;27.07;39.27
69715;HTU21D;56981;53.532;49.398;2023-08-20T13:03:20;27.02;38.98
69715;HTU21D;56981;53.532;49.398;2023-08-20T13:05:47;27.05;39.42
69715;HTU21D;56981;53.532;49.398;2023-08-20T13:08:13;27.08;39.86
69715;HTU21D;56981;53.532;49.398;2023-08-20T13:10:41;27.06;39.38
69715;HTU21D;56981;53.532;49.398;2023-08-20T13:13:10;27.00;39.39
69715;HTU21D;56981;53.532;49.398;2023-08-20T13:15:37;27.00;39.30
69715;HTU21D;56981;53.532;49.398;2023-08-20T13:18:03;26.97;39.46
69715;HTU21D;56981;53.532;49.398;2023-08-20T13:20:30;26.95;39.50
69715;HTU21D;56981;53.532;49.398;2023-08-20T13:22:57;26.95;40.97
69715;HTU21D;56981;53.532;49.398;2023-08-20T13:25:23;26.95;39.71
69715;HTU21D;56981;53.532;49.398;2023-08-20T13:27:49;26.93;41.49
69715;HTU21D;56981;53.532;49.398;2023-08-20T13:30:15;26.91;39.83
69715;HTU21D;56981;53.532;49.398;2023-08-20T13:32:42;26.96;39.75
69715;HTU21D;56981;53.532;49.398;2023-08-20T13:35:08;26.94;39.72
69715;HTU21D;56981;53.532;49.398;2023-08-20T13:37:34;26.86;40.02
69715;HTU21D;56981;53.532;49.398;2023-08-20T13:40:01;26.86;40.00
69715;HTU21D;56981;53.532;49.398;2023-08-20T13:42:29;26.84;39.88
69715;HTU21D;56981;53.532;49.398;2023-08-20T13:44:55;26.83;40.14
69715;HTU21D;56981;53.532;49.398;2023-08-20T13:47:22;26.79;40.16
69715;HTU21D;56981;53.532;49.398;2023-08-20T13:49:48;26.80;40.19
69715;HTU21D;56981;53.532;49.398;2023-08-20T13:52:16;26.79;40.33
69715;HTU21D;56981;53.532;49.398;2023-08-20T13:54:43;26.72;40.03
69715;HTU21D;56981;53.532;49.398;2023-08-20T13:57:09;26.75;40.43
69715;HTU21D;56981;53.532;49.398;2023-08-20T13:59:36;26.78;41.06
69715;HTU21D;56981;53.532;49.398;2023-08-20T14:02:02;26.72;40.52
69715;HTU21D;56981;53.532;49.398;2023-08-20T14:04:28;26.71;40.53
69715;HTU21D;56981;53.532;49.398;2023-08-20T14:06:54;26.68;40.57
69715;HTU21D;56981;53.532;49.398;2023-08-20T14:09:20;26.65;41.01
69715;HTU21D;56981;53.532;49.398;2023-08-20T14:11:47;26.61;40.77
69715;HTU21D;56981;53.532;49.398;2023-08-20T14:14:13;26.54;41.20
69715;HTU21D;56981;53.532;49.398;2023-08-20T14:16:39;26.54;40.76
69715;HTU21D;56981;53.532;49.398;2023-08-20T14:19:05;26.54;41.33
69715;HTU21D;56981;53.532;49.398;2023-08-20T14:21:32;26.56;41.82
69715;HTU21D;56981;53.532;49.398;2023-08-20T14:23:58;26.54;41.52
69715;HTU21D;56981;53.532;49.398;2023-08-20T14:26:25;26.51;40.85
69715;HTU21D;56981;53.532;49.398;2023-08-20T14:28:53;26.49;41.10
69715;HTU21D;56981;53.532;49.398;2023-08-20T14:31:19;26.51;41.10
69715;HTU21D;56981;53.532;49.398;2023-08-20T14:33:46;26.43;41.23
69715;HTU21D;56981;53.532;49.398;2023-08-20T14:36:12;26.40;41.25
69715;HTU21D;56981;53.532;49.398;2023-08-20T14:38:38;26.40;41.08
69715;HTU21D;56981;53.532;49.398;2023-08-20T14:41:04;26.36;41.43
69715;HTU21D;56981;53.532;49.398;2023-08-20T14:43:30;26.36;41.81
69715;HTU21D;56981;53.532;49.398;2023-08-20T14:45:56;26.34;41.78
69715;HTU21D;56981;53.532;49.398;2023-08-20T14:48:23;26.35;41.34
69715;HTU21D;56981;53.532;49.398;2023-08-20T14:50:50;26.30;41.97
69715;HTU21D;56981;53.532;49.398;2023-08-20T14:53:17;26.25;41.55
69715;HTU21D;56981;53.532;49.398;2023-08-20T14:55:44;26.22;41.93
69715;HTU21D;56981;53.532;49.398;2023-08-20T14:58:11;26.22;41.70
69715;HTU21D;56981;53.532;49.398;2023-08-20T15:00:37;26.18;41.74
69715;HTU21D;56981;53.532;49.398;2023-08-20T15:03:03;26.17;42.34
69715;HTU21D;56981;53.532;49.398;2023-08-20T15:05:30;26.15;42.10
69715;HTU21D;56981;53.532;49.398;2023-08-20T15:07:56;26.07;42.16
69715;HTU21D;56981;53.532;49.398;2023-08-20T15:10:22;26.07;42.61
69715;HTU21D;56981;53.532;49.398;2023-08-20T15:12:48;26.06;43.02
69715;HTU21D;56981;53.532;49.398;2023-08-20T15:15:14;26.06;43.36